createdAt,value
2023-03-04T00:04:22.758Z,96.87
2023-03-04T00:09:45.862Z,96.44
2023-03-04T00:15:08.345Z,96.28
2023-03-04T00:20:30.190Z,97.05
2023-03-04T00:25:52.062Z,96.38
2023-03-04T00:31:13.912Z,95.42
2023-03-04T00:36:35.792Z,96.02
2023-03-04T00:41:57.689Z,96.21
2023-03-04T00:47:19.622Z,96.33
2023-03-04T00:52:41.622Z,95.68
2023-03-04T00:58:03.737Z,96.07
2023-03-04T01:03:25.745Z,95.44
2023-03-04T01:08:47.791Z,96.13
2023-03-04T01:14:10.003Z,96.41
2023-03-04T01:19:31.856Z,96.00
2023-03-04T01:24:53.730Z,95.58
2023-03-04T01:30:15.621Z,95.12
2023-03-04T01:35:37.546Z,96.04
2023-03-04T01:40:59.486Z,95.77
2023-03-04T01:46:21.529Z,95.38
2023-03-04T01:51:46.767Z,94.95
2023-03-04T01:57:26.261Z,96.07
2023-03-04T02:02:51.737Z,95.18
2023-03-04T02:08:15.185Z,95.02
2023-03-04T02:13:37.239Z,96.59
2023-03-04T02:18:59.740Z,96.53
2023-03-04T02:24:32.685Z,94.99
2023-03-04T02:29:54.789Z,96.54
2023-03-04T02:35:18.819Z,97.05
2023-03-04T02:40:46.124Z,97.22
2023-03-04T02:46:12.551Z,97.13
2023-03-04T02:51:34.336Z,98.25
2023-03-04T02:56:59.687Z,96.92
2023-03-04T03:02:21.552Z,97.59
2023-03-04T03:07:43.501Z,97.67
2023-03-04T03:13:05.397Z,97.83
2023-03-04T03:18:27.244Z,97.06
2023-03-04T03:23:49.556Z,99.15
2023-03-04T03:29:11.577Z,98.40
2023-03-04T03:34:33.407Z,97.91
2023-03-04T03:39:55.291Z,97.32
2023-03-04T03:45:17.209Z,97.71
2023-03-04T03:50:39.092Z,97.61
2023-03-04T03:56:00.979Z,97.27
2023-03-04T04:01:22.858Z,96.39
2023-03-04T04:06:44.767Z,98.53
2023-03-04T04:12:07.297Z,97.65
2023-03-04T04:17:29.137Z,96.30
2023-03-04T04:22:51.024Z,96.33
2023-03-04T04:28:12.957Z,95.76
2023-03-04T04:33:35.631Z,95.95
2023-03-04T04:38:57.582Z,95.41
2023-03-04T04:44:19.446Z,95.11
2023-03-04T04:49:41.292Z,94.04
2023-03-04T04:55:03.892Z,94.05
2023-03-04T05:00:25.883Z,94.33
2023-03-04T05:05:48.674Z,93.74
2023-03-04T05:11:10.565Z,93.95
2023-03-04T05:16:32.468Z,93.74
2023-03-04T05:21:54.415Z,93.84
2023-03-04T05:27:16.253Z,94.47
2023-03-04T05:32:38.291Z,94.81
2023-03-04T05:38:00.130Z,94.12
2023-03-04T05:43:22.032Z,94.25
2023-03-04T05:48:44.785Z,94.37
2023-03-04T05:54:06.627Z,94.46
2023-03-04T05:59:28.795Z,94.51
2023-03-04T06:04:50.685Z,95.04
2023-03-04T06:10:15.156Z,95.01
2023-03-04T06:15:37.966Z,94.59
2023-03-04T06:21:02.284Z,94.41
2023-03-04T06:26:24.123Z,94.07
2023-03-04T06:31:46.067Z,94.36
2023-03-04T06:37:07.904Z,93.83
2023-03-04T06:42:29.831Z,93.76
2023-03-04T06:47:51.677Z,93.83
2023-03-04T06:53:13.538Z,94.79
2023-03-04T06:58:35.472Z,93.92
2023-03-04T07:03:57.892Z,94.17
2023-03-04T07:09:19.949Z,94.52
2023-03-04T07:14:41.915Z,94.62
2023-03-04T07:20:05.136Z,93.57
2023-03-04T07:25:27.051Z,93.03
2023-03-04T07:30:48.949Z,93.20
2023-03-04T07:36:10.840Z,92.44
2023-03-04T07:41:33.154Z,93.13
2023-03-04T07:46:55.008Z,93.20
2023-03-04T07:52:17.014Z,91.97
2023-03-04T07:57:40.001Z,91.56
2023-03-04T08:03:01.887Z,90.37
2023-03-04T08:08:23.818Z,90.81
2023-03-04T08:13:46.351Z,89.79
2023-03-04T08:19:08.661Z,90.35
2023-03-04T08:24:30.538Z,89.78
2023-03-04T08:29:52.439Z,88.96
2023-03-04T08:35:14.324Z,89.30
2023-03-04T08:40:36.144Z,89.03
2023-03-04T08:45:58.206Z,88.86
2023-03-04T08:51:20.363Z,89.00
2023-03-04T08:56:42.289Z,88.12
2023-03-04T09:02:04.281Z,87.49
2023-03-04T09:07:26.199Z,88.30
2023-03-04T09:12:48.042Z,86.77
2023-03-04T09:18:09.939Z,86.84
2023-03-04T09:23:31.822Z,85.97
2023-03-04T09:28:59.194Z,85.27
2023-03-04T09:34:21.021Z,84.96
2023-03-04T09:39:42.832Z,86.44
2023-03-04T09:45:08.318Z,85.83
2023-03-04T09:50:34.328Z,85.84
2023-03-04T09:55:56.377Z,85.55
2023-03-04T10:01:31.254Z,85.75
2023-03-04T10:06:53.414Z,86.80
2023-03-04T10:12:20.429Z,85.39
2023-03-04T10:17:46.995Z,87.30
2023-03-04T10:23:11.612Z,86.80
2023-03-04T10:28:35.384Z,85.79
2023-03-04T10:33:57.286Z,86.39
2023-03-04T10:39:22.975Z,85.15
2023-03-04T10:44:53.681Z,85.67
2023-03-04T10:50:28.356Z,85.75
2023-03-04T10:55:50.326Z,90.69
2023-03-04T11:01:16.132Z,89.21
2023-03-04T11:06:41.074Z,89.75
2023-03-04T11:12:09.722Z,89.91
2023-03-04T11:17:47.170Z,90.25
2023-03-04T11:28:39.708Z,93.30
2023-03-04T11:34:07.932Z,95.43
2023-03-04T11:39:35.859Z,94.13
2023-03-04T11:44:57.792Z,94.85
2023-03-04T11:50:31.625Z,96.14
2023-03-04T11:56:05.424Z,93.64
2023-03-04T12:01:37.938Z,93.83
2023-03-04T12:07:03.719Z,94.32
2023-03-04T12:12:33.183Z,94.31
2023-03-04T12:17:58.185Z,93.06
2023-03-04T12:23:28.916Z,92.36
2023-03-04T12:28:55.762Z,91.15
2023-03-04T12:34:33.203Z,89.97
2023-03-04T12:40:00.809Z,90.23
2023-03-04T12:45:32.842Z,87.71
2023-03-04T12:50:57.715Z,86.29
2023-03-04T12:56:39.459Z,84.72
2023-03-04T13:02:29.681Z,82.72
2023-03-04T13:08:13.084Z,83.08
2023-03-04T13:13:41.474Z,83.74
2023-03-04T13:19:03.393Z,81.99
2023-03-04T13:24:45.068Z,81.79
2023-03-04T13:30:32.428Z,79.59
2023-03-04T13:35:57.250Z,80.85
2023-03-04T13:41:23.957Z,85.77
2023-03-04T13:46:45.998Z,89.85
2023-03-04T13:52:42.466Z,90.70
2023-03-04T13:58:26.654Z,87.69
2023-03-04T14:03:48.674Z,85.60
2023-03-04T14:09:20.030Z,84.32
2023-03-04T14:14:44.469Z,83.25
2023-03-04T14:20:41.855Z,80.81
2023-03-04T14:26:18.331Z,78.81
2023-03-04T14:31:40.263Z,78.57
2023-03-04T14:37:03.581Z,76.88
2023-03-04T14:42:36.099Z,75.52
2023-03-04T14:48:04.905Z,75.18
2023-03-04T14:53:29.864Z,74.20
2023-03-04T14:58:54.937Z,73.48
2023-03-04T15:04:19.584Z,71.56
2023-03-04T15:09:41.917Z,70.32
2023-03-04T15:15:50.214Z,68.03
2023-03-04T15:21:21.158Z,65.79
2023-03-04T15:26:44.019Z,62.90
2023-03-04T15:32:05.918Z,55.83
2023-03-04T15:37:29.377Z,54.20
2023-03-04T15:42:51.560Z,56.23
2023-03-04T15:48:15.706Z,56.70
2023-03-04T15:53:40.664Z,56.46
2023-03-04T15:59:14.516Z,55.77
2023-03-04T16:04:36.355Z,57.15
2023-03-04T16:10:05.150Z,56.30
2023-03-04T16:15:29.347Z,55.67
2023-03-04T16:20:51.535Z,53.48
2023-03-04T16:26:16.248Z,51.84
2023-03-04T16:31:38.294Z,51.20
2023-03-04T16:37:06.732Z,50.42
2023-03-04T16:42:28.640Z,50.13
2023-03-04T16:47:51.262Z,51.14
2023-03-04T16:53:24.977Z,47.75
2023-03-04T16:58:47.058Z,47.00
2023-03-04T17:04:08.900Z,46.28
2023-03-04T17:09:30.778Z,45.58
2023-03-04T17:14:52.715Z,46.21
2023-03-04T17:20:17.695Z,45.43
2023-03-04T17:25:39.857Z,46.04
2023-03-04T17:31:01.934Z,46.16
2023-03-04T17:36:23.822Z,46.57
2023-03-04T17:41:45.745Z,45.81
2023-03-04T17:47:08.220Z,45.78
2023-03-04T17:52:30.045Z,45.82
2023-03-04T17:57:51.848Z,45.18
2023-03-04T18:03:14.251Z,45.79
2023-03-04T18:08:36.068Z,46.10
2023-03-04T18:13:57.947Z,46.11
2023-03-04T18:19:19.829Z,46.07
2023-03-04T18:24:41.666Z,45.92
2023-03-04T18:30:03.794Z,45.74
2023-03-04T18:35:26.115Z,45.69
2023-03-04T18:40:47.984Z,46.16
2023-03-04T18:46:18.638Z,45.52
2023-03-04T18:51:40.542Z,46.57
2023-03-04T18:57:09.356Z,45.69
2023-03-04T19:02:43.186Z,45.64
2023-03-04T19:08:05.038Z,46.79
2023-03-04T19:13:29.490Z,46.63
2023-03-04T19:18:52.756Z,47.37
2023-03-04T19:24:14.633Z,47.25
2023-03-04T19:29:36.581Z,47.11
2023-03-04T19:34:58.415Z,46.94
2023-03-04T19:40:20.794Z,47.31
2023-03-04T19:45:42.661Z,47.51
2023-03-04T19:51:13.136Z,48.21
2023-03-04T19:56:35.020Z,48.35
2023-03-04T20:01:56.825Z,48.63
2023-03-04T20:07:18.635Z,48.90
2023-03-04T20:12:40.481Z,49.05
2023-03-04T20:18:04.729Z,48.64
2023-03-04T20:23:29.183Z,48.80
2023-03-04T20:28:51.538Z,48.89
2023-03-04T20:34:14.207Z,49.61
2023-03-04T20:39:36.079Z,49.02
2023-03-04T20:44:57.947Z,49.84
2023-03-04T20:50:19.906Z,49.74
2023-03-04T20:55:41.707Z,49.94
2023-03-04T21:01:03.669Z,49.83
2023-03-04T21:06:25.849Z,49.43
2023-03-04T21:11:48.382Z,49.83
2023-03-04T21:17:10.935Z,49.33
2023-03-04T21:22:32.794Z,49.65
2023-03-04T21:27:54.660Z,49.82
2023-03-04T21:33:18.510Z,49.33
2023-03-04T21:38:42.192Z,49.38
2023-03-04T21:44:04.095Z,49.23
2023-03-04T21:49:26.489Z,49.90
2023-03-04T21:54:48.684Z,49.98
2023-03-04T22:00:11.238Z,49.01
2023-03-04T22:05:33.140Z,50.15
2023-03-04T22:10:55.033Z,49.81
2023-03-04T22:16:16.891Z,49.85
2023-03-04T22:21:38.754Z,49.80
2023-03-04T22:27:00.893Z,50.42
2023-03-04T22:32:22.760Z,50.58
2023-03-04T22:37:45.250Z,50.45
2023-03-04T22:43:07.165Z,51.14
2023-03-04T22:48:29.100Z,51.41
2023-03-04T22:53:51.331Z,51.49
2023-03-04T22:59:13.766Z,51.28
2023-03-04T23:04:35.655Z,51.54
2023-03-04T23:09:57.536Z,51.67
2023-03-04T23:15:19.972Z,51.44
2023-03-04T23:20:41.838Z,51.47
2023-03-04T23:26:04.445Z,51.53
2023-03-04T23:31:26.357Z,51.44
2023-03-04T23:36:48.226Z,52.33
2023-03-04T23:42:10.099Z,51.97
2023-03-04T23:47:31.953Z,52.42
2023-03-04T23:52:53.794Z,52.23
2023-03-04T23:58:15.819Z,53.65
